Time;durP1;ratioP1;P1;durP2;ratioP2;P2;SDS_P1;SDS_P2;PMS_P1;PMS_P2;Temp;Humidity;BMP_temperature;BMP_pressure;BME280_temperature;BME280_humidity;BME280_pressure;Samples;Min_cycle;Max_cycle;Signal;HPM_P1;HPM_P2
2022/05/31 00:00:11;;;;;;;15.00;8.63;;;10.70;99.90;;;;;;5050296;28;20614;-64
2022/05/31 00:02:36;;;;;;;9.97;9.07;;;10.70;99.90;;;;;;5050430;28;20175;-64
2022/05/31 00:05:02;;;;;;;8.73;8.03;;;10.70;99.90;;;;;;5050286;28;20523;-64
2022/05/31 00:07:28;;;;;;;8.60;7.90;;;10.70;99.90;;;;;;5050409;28;20182;-64
2022/05/31 00:09:54;;;;;;;8.67;8.07;;;10.70;99.90;;;;;;5050654;28;20638;-64
2022/05/31 00:12:19;;;;;;;11.30;9.33;;;10.80;99.90;;;;;;5050288;28;20552;-64
2022/05/31 00:14:45;;;;;;;8.73;8.10;;;10.90;99.90;;;;;;5048623;28;20262;-65
2022/05/31 00:17:11;;;;;;;8.60;8.00;;;10.90;99.90;;;;;;5049895;28;20324;-64
2022/05/31 00:19:37;;;;;;;9.27;8.47;;;10.90;99.90;;;;;;5049246;28;20203;-64
2022/05/31 00:22:13;;;;;;;9.13;8.13;;;10.90;99.90;;;;;;5050160;28;20214;-64
2022/05/31 00:24:40;;;;;;;9.13;8.43;;;10.90;99.90;;;;;;5030535;28;20167;-64
2022/05/31 00:27:12;;;;;;;9.17;8.37;;;10.90;99.90;;;;;;5034033;28;20615;-64
2022/05/31 00:29:38;;;;;;;8.77;8.10;;;10.90;99.90;;;;;;5033998;28;20176;-65
2022/05/31 00:32:08;;;;;;;8.87;8.17;;;10.90;99.90;;;;;;5033644;28;20318;-65
2022/05/31 00:34:36;;;;;;;9.57;8.77;;;10.90;99.90;;;;;;5052835;28;20213;-64
2022/05/31 00:37:03;;;;;;;9.70;8.90;;;10.90;99.90;;;;;;5053730;28;20265;-64
2022/05/31 00:39:29;;;;;;;10.40;9.47;;;10.90;99.90;;;;;;5053511;28;20202;-64
2022/05/31 00:41:59;;;;;;;9.70;8.80;;;10.90;99.90;;;;;;5053295;28;20247;-65
2022/05/31 00:44:28;;;;;;;9.80;8.83;;;10.90;99.90;;;;;;5053041;28;20171;-65
2022/05/31 00:47:00;;;;;;;11.30;9.33;;;10.90;99.90;;;;;;5053557;28;20167;-63
2022/05/31 00:49:36;;;;;;;9.33;8.53;;;11.00;99.90;;;;;;5053267;28;20274;-64
2022/05/31 00:52:13;;;;;;;9.60;8.70;;;10.90;99.90;;;;;;5053267;28;20198;-64
2022/05/31 00:54:43;;;;;;;10.07;9.17;;;10.90;99.90;;;;;;5052754;28;20182;-64
2022/05/31 00:57:10;;;;;;;9.57;8.83;;;10.90;99.90;;;;;;5053357;28;20178;-63
2022/05/31 00:59:40;;;;;;;10.07;9.07;;;10.90;99.90;;;;;;5053348;28;20199;-64
2022/05/31 01:02:06;;;;;;;9.93;9.03;;;11.00;99.90;;;;;;5053032;28;20210;-64
2022/05/31 01:04:40;;;;;;;8.70;8.10;;;11.00;99.90;;;;;;5051366;28;20186;-64
2022/05/31 01:07:06;;;;;;;8.50;7.83;;;10.90;99.90;;;;;;5053107;28;20182;-64
2022/05/31 01:09:32;;;;;;;11.83;9.00;;;10.90;99.90;;;;;;5053131;28;20179;-63
2022/05/31 01:11:59;;;;;;;8.90;8.00;;;10.90;99.90;;;;;;5053025;28;20191;-64
2022/05/31 01:14:26;;;;;;;10.17;9.10;;;10.90;99.90;;;;;;5052505;28;20273;-65
2022/05/31 01:16:58;;;;;;;9.10;8.33;;;10.90;99.90;;;;;;5053098;28;20169;-64
2022/05/31 01:22:08;;;;;;;9.03;8.13;;;10.80;99.90;;;;;;5053051;28;20210;-64
2022/05/31 01:24:45;;;;;;;10.13;9.33;;;10.80;99.90;;;;;;5052426;28;20171;-64
2022/05/31 01:27:32;;;;;;;9.60;8.60;;;10.80;99.90;;;;;;5051659;28;20190;-65
2022/05/31 01:30:00;;;;;;;9.47;8.57;;;10.80;99.90;;;;;;5032958;28;20178;-64
2022/05/31 01:32:25;;;;;;;9.63;8.70;;;10.80;99.90;;;;;;5033223;28;20188;-64
2022/05/31 01:35:20;;;;;;;9.60;7.73;;;10.80;99.90;;;;;;5052295;28;20178;-65
2022/05/31 01:37:56;;;;;;;9.83;8.90;;;10.80;99.90;;;;;;5052278;28;20661;-64
2022/05/31 01:40:36;;;;;;;9.60;8.77;;;10.80;99.90;;;;;;5051915;28;20213;-64
2022/05/31 01:43:01;;;;;;;9.43;8.47;;;10.80;99.90;;;;;;5050929;28;20220;-65
2022/05/31 01:45:34;;;;;;;9.17;8.27;;;10.80;99.90;;;;;;5052208;28;20175;-65
2022/05/31 01:48:02;;;;;;;8.53;7.83;;;10.80;99.90;;;;;;5052068;28;20174;-65
2022/05/31 01:50:28;;;;;;;10.37;8.70;;;10.80;99.90;;;;;;5052142;28;20202;-65
2022/05/31 01:52:55;;;;;;;8.83;8.13;;;10.80;99.90;;;;;;5052071;28;20593;-65
2022/05/31 01:55:22;;;;;;;10.13;8.00;;;10.80;99.90;;;;;;5052029;28;20258;-65
2022/05/31 01:57:53;;;;;;;9.13;8.33;;;10.90;99.90;;;;;;5052200;28;20725;-65
2022/05/31 02:00:19;;;;;;;10.33;8.23;;;10.90;99.90;;;;;;5050661;28;20206;-64
2022/05/31 02:02:48;;;;;;;9.50;8.70;;;11.00;99.90;;;;;;5052199;28;20537;-64
2022/05/31 02:05:15;;;;;;;10.03;9.03;;;11.00;99.90;;;;;;5051576;28;20174;-64
2022/05/31 02:07:41;;;;;;;9.67;8.67;;;11.10;99.90;;;;;;5051863;28;20202;-64
2022/05/31 02:10:07;;;;;;;9.60;8.60;;;11.10;99.90;;;;;;5051916;28;20198;-64
2022/05/31 02:12:32;;;;;;;9.20;8.30;;;11.10;99.90;;;;;;5050580;28;20886;-63
2022/05/31 02:14:58;;;;;;;8.80;7.90;;;11.10;99.90;;;;;;5051569;28;20262;-63
2022/05/31 02:17:24;;;;;;;8.60;7.90;;;11.10;99.90;;;;;;5051970;28;20179;-63
2022/05/31 02:19:50;;;;;;;9.03;8.40;;;11.10;99.90;;;;;;5051759;28;20230;-63
2022/05/31 02:22:19;;;;;;;8.40;7.60;;;11.10;99.90;;;;;;5051291;28;20724;-63
2022/05/31 02:24:45;;;;;;;8.40;7.60;;;11.00;99.90;;;;;;5053520;28;20174;-68
2022/05/31 02:27:12;;;;;;;8.30;7.60;;;11.00;99.90;;;;;;5052913;28;20555;-66
2022/05/31 02:29:38;;;;;;;9.20;8.30;;;11.00;99.90;;;;;;5053465;28;20202;-67
2022/05/31 02:32:07;;;;;;;8.20;7.60;;;11.00;99.90;;;;;;5052854;28;20301;-67
2022/05/31 02:34:36;;;;;;;8.03;7.30;;;11.00;99.90;;;;;;5052588;28;20178;-67
2022/05/31 02:37:03;;;;;;;9.10;8.30;;;11.10;99.90;;;;;;5052710;28;20654;-69
2022/05/31 02:39:29;;;;;;;7.40;6.80;;;11.10;99.90;;;;;;5052005;28;20202;-64
2022/05/31 02:41:56;;;;;;;8.37;7.70;;;11.00;99.90;;;;;;5052729;28;20210;-68
2022/05/31 02:44:22;;;;;;;8.13;7.53;;;11.10;99.90;;;;;;5052979;28;20220;-67
2022/05/31 02:46:48;;;;;;;8.53;7.73;;;11.10;99.90;;;;;;5051380;28;20646;-68
2022/05/31 02:49:13;;;;;;;8.30;7.57;;;11.10;99.90;;;;;;5052565;28;20205;-67
2022/05/31 02:51:41;;;;;;;8.20;7.47;;;11.10;99.90;;;;;;5052691;28;20595;-68
2022/05/31 02:54:08;;;;;;;7.97;7.27;;;11.10;99.90;;;;;;5032780;28;20439;-66
2022/05/31 02:56:34;;;;;;;8.03;7.43;;;11.10;99.90;;;;;;5033005;28;20175;-67
2022/05/31 02:59:00;;;;;;;7.57;7.07;;;11.10;99.90;;;;;;5051754;28;20232;-67
2022/05/31 03:01:30;;;;;;;8.23;6.97;;;11.10;99.90;;;;;;5052710;28;20238;-68
2022/05/31 03:03:55;;;;;;;8.00;7.40;;;11.10;99.90;;;;;;5052191;28;20645;-68
2022/05/31 03:06:22;;;;;;;7.87;7.27;;;11.10;99.90;;;;;;5051986;28;20217;-68
2022/05/31 03:08:48;;;;;;;10.33;8.00;;;11.00;99.90;;;;;;5052167;28;20170;-66
2022/05/31 03:11:17;;;;;;;9.63;7.33;;;10.90;99.90;;;;;;5051761;28;20199;-68
2022/05/31 03:13:44;;;;;;;7.73;7.07;;;11.00;99.90;;;;;;5051869;28;20611;-67
2022/05/31 03:16:11;;;;;;;7.60;7.00;;;10.90;99.90;;;;;;5050698;28;20190;-68
2022/05/31 03:18:44;;;;;;;7.57;6.87;;;10.90;99.90;;;;;;5052158;28;20182;-67
2022/05/31 03:21:19;;;;;;;8.23;7.73;;;10.90;99.90;;;;;;5052386;28;20214;-67
2022/05/31 03:23:49;;;;;;;7.67;7.07;;;10.90;99.90;;;;;;5051773;28;20278;-67
2022/05/31 03:26:17;;;;;;;7.03;6.57;;;10.90;99.90;;;;;;5052082;28;20178;-65
2022/05/31 03:28:43;;;;;;;7.57;6.77;;;10.80;99.90;;;;;;5051903;28;20179;-67
2022/05/31 03:31:09;;;;;;;7.20;6.60;;;10.80;99.90;;;;;;5050697;28;20218;-67
2022/05/31 03:33:35;;;;;;;7.77;7.17;;;10.70;99.90;;;;;;5051936;28;20187;-68
2022/05/31 03:36:01;;;;;;;6.70;6.10;;;10.70;99.90;;;;;;5052111;28;20189;-66
2022/05/31 03:38:27;;;;;;;8.47;7.87;;;10.70;99.90;;;;;;5052148;28;20612;-70
2022/05/31 03:40:58;;;;;;;7.53;6.97;;;10.70;99.90;;;;;;5050131;28;20210;-69
2022/05/31 03:43:35;;;;;;;7.17;6.53;;;10.80;99.90;;;;;;5052036;28;20174;-67
2022/05/31 03:46:00;;;;;;;7.83;7.17;;;10.80;99.90;;;;;;5052023;28;20218;-68
2022/05/31 03:48:30;;;;;;;6.73;6.30;;;10.80;99.90;;;;;;5051723;28;20654;-69
2022/05/31 03:51:05;;;;;;;6.70;6.20;;;10.80;99.90;;;;;;5051699;28;20210;-70
2022/05/31 03:53:31;;;;;;;6.53;6.13;;;10.80;99.90;;;;;;5051587;28;20691;-68
2022/05/31 03:56:00;;;;;;;6.70;6.27;;;10.90;99.90;;;;;;5051826;28;20198;-70
2022/05/31 03:58:25;;;;;;;7.60;6.80;;;11.00;99.90;;;;;;5051771;28;20183;-63
2022/05/31 04:00:51;;;;;;;7.13;6.57;;;11.00;99.90;;;;;;5053877;28;20206;-64
2022/05/31 04:03:17;;;;;;;10.63;6.07;;;11.10;99.90;;;;;;5054453;28;20179;-63
2022/05/31 04:05:43;;;;;;;8.00;6.80;;;11.10;99.90;;;;;;5053867;28;20216;-65
2022/05/31 04:08:11;;;;;;;7.23;6.43;;;11.10;99.90;;;;;;5054386;28;20181;-64
2022/05/31 04:10:39;;;;;;;6.60;6.10;;;11.10;99.90;;;;;;5054037;28;20214;-64
2022/05/31 04:13:05;;;;;;;6.67;6.07;;;11.10;99.90;;;;;;5054078;28;20175;-63
2022/05/31 04:15:33;;;;;;;7.50;6.90;;;11.10;99.90;;;;;;5053935;28;20183;-64
2022/05/31 04:17:59;;;;;;;6.53;6.03;;;11.10;99.90;;;;;;5054182;28;20198;-64
2022/05/31 04:20:25;;;;;;;6.87;6.50;;;11.00;99.90;;;;;;5054210;28;20213;-64
2022/05/31 04:22:51;;;;;;;7.20;6.70;;;10.90;99.90;;;;;;5054015;28;20201;-63
2022/05/31 04:25:16;;;;;;;7.17;6.53;;;10.80;99.90;;;;;;5053631;28;20187;-63
2022/05/31 04:27:42;;;;;;;6.37;5.97;;;10.70;99.90;;;;;;5053965;28;20198;-64
2022/05/31 04:30:09;;;;;;;8.30;6.77;;;10.60;99.90;;;;;;5052322;28;20258;-63
2022/05/31 04:32:34;;;;;;;6.63;6.03;;;10.50;99.90;;;;;;5053795;28;20174;-64
2022/05/31 04:35:01;;;;;;;6.87;6.47;;;10.50;99.90;;;;;;5053479;28;20599;-63
2022/05/31 04:37:28;;;;;;;6.90;6.50;;;10.50;99.90;;;;;;5053909;28;20196;-63
2022/05/31 04:39:54;;;;;;;8.47;6.50;;;10.50;99.90;;;;;;5053448;28;20213;-63
2022/05/31 04:42:20;;;;;;;7.07;6.40;;;10.50;99.90;;;;;;5053632;28;20273;-63
2022/05/31 04:44:45;;;;;;;7.77;6.80;;;10.60;99.90;;;;;;5053152;28;20541;-63
2022/05/31 04:47:11;;;;;;;7.40;6.90;;;10.60;99.90;;;;;;5053685;28;20167;-64
2022/05/31 04:49:36;;;;;;;7.83;7.20;;;10.60;99.90;;;;;;5053635;28;20701;-64
2022/05/31 04:52:02;;;;;;;7.40;6.80;;;10.60;99.90;;;;;;5053153;28;20284;-64
2022/05/31 04:54:30;;;;;;;7.40;6.87;;;10.60;99.90;;;;;;5053080;28;20253;-64
2022/05/31 04:56:59;;;;;;;7.03;6.53;;;10.70;99.90;;;;;;5052941;28;20269;-64
2022/05/31 04:59:25;;;;;;;7.00;6.50;;;10.70;99.90;;;;;;5053360;28;20234;-64
2022/05/31 05:01:51;;;;;;;6.80;6.40;;;10.80;99.90;;;;;;5053285;28;20222;-64
2022/05/31 05:04:17;;;;;;;7.03;6.33;;;10.80;99.90;;;;;;5052816;28;20661;-64
2022/05/31 05:06:42;;;;;;;7.00;6.50;;;10.90;99.90;;;;;;5053151;28;20190;-64
2022/05/31 05:09:08;;;;;;;7.30;6.70;;;11.00;99.90;;;;;;5053135;28;20241;-63
2022/05/31 05:11:33;;;;;;;6.87;6.27;;;11.10;99.90;;;;;;5052157;28;20203;-63
2022/05/31 05:13:59;;;;;;;7.20;6.50;;;11.20;99.90;;;;;;5052818;28;20175;-64
2022/05/31 05:16:26;;;;;;;6.87;6.37;;;11.40;99.90;;;;;;5052892;28;20677;-63
2022/05/31 05:18:52;;;;;;;6.37;5.87;;;11.60;99.90;;;;;;5052764;28;20179;-64
2022/05/31 05:21:17;;;;;;;7.20;6.70;;;11.70;99.90;;;;;;5052924;28;20221;-64
2022/05/31 05:23:43;;;;;;;7.53;7.00;;;11.80;99.90;;;;;;5051203;28;20183;-62
2022/05/31 05:26:10;;;;;;;6.40;6.00;;;11.90;99.90;;;;;;5052895;28;20189;-63
2022/05/31 05:31:32;;;;;;;6.83;6.23;;;12.10;99.90;;;;;;5052501;28;20692;-63
2022/05/31 05:34:00;;;;;;;6.73;6.27;;;12.20;99.90;;;;;;5052127;28;20356;-64
2022/05/31 05:36:26;;;;;;;6.53;6.13;;;12.10;99.90;;;;;;5052563;28;20190;-63
2022/05/31 05:38:52;;;;;;;6.83;6.33;;;12.00;99.90;;;;;;5052465;28;20178;-63
2022/05/31 05:41:20;;;;;;;6.60;6.20;;;11.90;99.90;;;;;;5052583;28;20304;-63
2022/05/31 05:43:46;;;;;;;6.80;6.40;;;11.90;99.90;;;;;;5050744;28;20274;-63
2022/05/31 05:46:20;;;;;;;7.03;6.47;;;11.70;99.90;;;;;;5052412;28;20657;-64
2022/05/31 05:48:46;;;;;;;7.00;6.43;;;11.60;99.90;;;;;;5052330;28;20174;-63
2022/05/31 05:51:26;;;;;;;7.30;6.80;;;11.50;99.90;;;;;;5052359;28;20577;-64
2022/05/31 05:53:52;;;;;;;7.37;6.73;;;11.40;99.90;;;;;;5051700;28;20183;-64
2022/05/31 05:56:18;;;;;;;7.23;6.63;;;11.30;99.90;;;;;;5051274;28;20289;-64
2022/05/31 05:58:44;;;;;;;8.87;7.10;;;11.30;99.90;;;;;;5051935;28;20645;-63
2022/05/31 06:01:20;;;;;;;7.10;6.50;;;11.20;99.90;;;;;;5050034;28;20264;-64
2022/05/31 06:04:12;;;;;;;7.17;6.67;;;11.20;99.90;;;;;;5079637;28;20178;-64
2022/05/31 06:06:41;;;;;;;6.90;6.40;;;11.10;99.90;;;;;;5047144;28;20602;-64
2022/05/31 06:09:11;;;;;;;7.37;6.77;;;11.10;99.90;;;;;;5051829;28;20183;-63
2022/05/31 06:12:01;;;;;;;7.27;6.70;;;11.10;99.90;;;;;;5050284;28;20187;-65
2022/05/31 06:14:36;;;;;;;7.67;6.93;;;11.10;99.90;;;;;;5051527;28;20175;-64
2022/05/31 06:17:20;;;;;;;7.80;7.10;;;11.10;99.90;;;;;;5051451;28;20181;-64
2022/05/31 06:19:48;;;;;;;7.67;6.97;;;11.20;99.90;;;;;;5051335;28;20195;-64
2022/05/31 06:22:14;;;;;;;8.07;6.90;;;11.20;99.90;;;;;;5050867;28;20207;-64
2022/05/31 06:24:40;;;;;;;8.43;7.73;;;11.30;99.90;;;;;;5050769;28;20182;-64
2022/05/31 06:27:06;;;;;;;7.73;7.13;;;11.30;99.90;;;;;;5051816;28;20329;-64
2022/05/31 06:29:32;;;;;;;7.77;7.00;;;11.40;99.90;;;;;;5051455;28;20178;-62
2022/05/31 06:31:57;;;;;;;7.50;6.90;;;11.60;99.90;;;;;;5051173;28;20229;-64
2022/05/31 06:34:23;;;;;;;8.50;7.87;;;11.90;99.90;;;;;;5050840;28;20269;-64
2022/05/31 06:36:49;;;;;;;7.77;7.17;;;12.10;99.90;;;;;;5051101;28;20248;-64
2022/05/31 06:39:15;;;;;;;7.40;6.30;;;12.30;99.90;;;;;;5051338;28;20170;-63
2022/05/31 06:41:41;;;;;;;6.70;6.20;;;12.70;99.90;;;;;;5051165;28;20202;-64
2022/05/31 06:44:07;;;;;;;12.63;9.37;;;12.80;99.90;;;;;;5049143;28;20352;-64
2022/05/31 06:46:32;;;;;;;8.63;6.70;;;13.10;99.90;;;;;;5051327;28;20177;-64
2022/05/31 06:49:00;;;;;;;12.17;6.53;;;13.20;99.90;;;;;;5051212;28;20217;-64
2022/05/31 06:56:59;;;;;;;6.67;6.10;;;14.00;99.90;;;;;;5050313;28;20285;-65
2022/05/31 06:59:24;;;;;;;5.93;5.53;;;14.50;99.90;;;;;;5051308;28;20670;-65
2022/05/31 07:01:51;;;;;;;6.00;5.47;;;14.90;99.90;;;;;;5050866;28;20233;-65
2022/05/31 07:04:17;;;;;;;8.13;4.93;;;15.60;99.90;;;;;;5050254;28;20236;-64
2022/05/31 07:06:42;;;;;;;5.73;5.23;;;16.50;99.90;;;;;;5050859;28;20178;-64
2022/05/31 07:09:08;;;;;;;5.23;4.73;;;17.40;99.90;;;;;;5050971;28;20261;-64
2022/05/31 07:11:34;;;;;;;5.20;4.60;;;18.00;99.90;;;;;;5051118;28;20596;-65
2022/05/31 07:14:01;;;;;;;4.80;4.40;;;18.20;99.90;;;;;;5054923;28;20595;-64
2022/05/31 07:16:27;;;;;;;5.40;4.63;;;18.10;99.90;;;;;;5050696;28;20257;-65
2022/05/31 07:18:54;;;;;;;5.20;4.40;;;18.20;99.90;;;;;;5050625;28;20178;-64
2022/05/31 07:21:20;;;;;;;7.17;4.60;;;18.50;99.90;;;;;;5049259;28;20723;-64
2022/05/31 07:23:45;;;;;;;4.57;4.17;;;19.20;99.90;;;;;;5050635;28;20222;-65
2022/05/31 07:26:12;;;;;;;4.38;3.97;;;19.80;99.90;;;;;;5051030;28;20626;-64
2022/05/31 07:28:39;;;;;;;4.43;3.70;;;20.40;99.90;;;;;;5050949;28;20175;-65
2022/05/31 07:31:05;;;;;;;4.03;3.63;;;20.60;99.90;;;;;;5050951;28;20296;-65
2022/05/31 07:33:30;;;;;;;4.30;3.87;;;20.40;99.90;;;;;;5050296;28;20254;-65
2022/05/31 07:35:56;;;;;;;4.30;4.00;;;20.00;99.90;;;;;;5054441;28;20232;-65
2022/05/31 07:38:22;;;;;;;6.50;4.60;;;19.40;99.90;;;;;;5054778;28;20257;-64
2022/05/31 07:40:48;;;;;;;4.63;4.33;;;18.90;99.90;;;;;;5054478;28;20209;-65
2022/05/31 07:43:14;;;;;;;5.30;4.60;;;18.20;99.90;;;;;;5054744;28;20167;-64
2022/05/31 07:45:39;;;;;;;4.93;4.43;;;17.80;99.90;;;;;;5054255;28;20221;-64
2022/05/31 07:48:06;;;;;;;4.80;4.40;;;17.20;99.90;;;;;;5054615;28;20196;-64
2022/05/31 07:50:32;;;;;;;4.83;4.53;;;16.70;99.90;;;;;;5053336;28;20277;-65
2022/05/31 07:52:59;;;;;;;5.30;4.77;;;16.40;99.90;;;;;;5054328;28;20220;-64
2022/05/31 07:55:27;;;;;;;5.77;5.27;;;16.10;99.90;;;;;;5054120;28;20182;-64
2022/05/31 08:00:37;;;;;;;5.43;5.03;;;15.90;99.90;;;;;;5054033;28;20812;-64
2022/05/31 08:03:05;;;;;;;5.30;4.90;;;15.80;99.90;;;;;;5053531;28;20265;-64
2022/05/31 08:05:30;;;;;;;6.67;5.27;;;15.80;99.90;;;;;;5053292;28;20186;-64
2022/05/31 08:07:56;;;;;;;5.77;5.37;;;15.80;99.90;;;;;;5054151;28;20178;-65
2022/05/31 08:10:22;;;;;;;6.07;5.50;;;15.80;99.90;;;;;;5054006;28;20195;-64
2022/05/31 08:12:48;;;;;;;5.63;5.23;;;15.80;99.90;;;;;;5053952;28;20520;-64
2022/05/31 08:15:14;;;;;;;5.97;5.47;;;15.90;99.90;;;;;;5052811;28;20609;-65
2022/05/31 08:17:40;;;;;;;5.17;4.87;;;16.00;99.90;;;;;;5052896;28;20194;-64
2022/05/31 08:20:07;;;;;;;5.63;5.23;;;16.00;99.90;;;;;;5070387;28;20600;-64
2022/05/31 08:22:33;;;;;;;5.77;5.30;;;16.00;99.90;;;;;;5073849;28;20723;-65
2022/05/31 08:25:00;;;;;;;6.13;5.10;;;16.10;99.90;;;;;;5073593;28;20174;-64
2022/05/31 08:27:26;;;;;;;6.20;5.70;;;16.00;99.90;;;;;;5073944;28;20570;-64
2022/05/31 08:29:51;;;;;;;5.50;5.10;;;16.10;99.90;;;;;;5073797;28;20227;-64
2022/05/31 08:32:17;;;;;;;5.70;5.03;;;16.00;99.90;;;;;;5073773;28;20190;-64
2022/05/31 08:34:43;;;;;;;5.20;4.90;;;15.90;99.90;;;;;;5073329;28;20702;-64
2022/05/31 08:37:09;;;;;;;5.47;5.10;;;15.80;99.90;;;;;;5073694;28;20265;-64
2022/05/31 08:39:35;;;;;;;6.00;5.50;;;15.80;99.90;;;;;;5073753;28;20309;-64
2022/05/31 08:42:09;;;;;;;6.53;5.93;;;15.70;99.90;;;;;;5073490;28;20672;-65
2022/05/31 08:44:56;;;;;;;5.60;5.00;;;15.70;99.90;;;;;;5073230;28;20601;-64
2022/05/31 08:47:38;;;;;;;5.13;4.73;;;15.60;99.90;;;;;;5065317;28;20502;-64
2022/05/31 08:53:11;;;;;;;5.50;5.10;;;15.70;99.90;;;;;;5053626;28;20189;-64
2022/05/31 08:58:56;;;;;;;5.90;5.50;;;15.80;99.90;;;;;;5053708;28;20182;-65
2022/05/31 09:01:27;;;;;;;5.63;5.23;;;15.80;99.90;;;;;;5053471;28;20198;-64
2022/05/31 09:04:15;;;;;;;6.00;5.50;;;15.80;99.90;;;;;;5052882;28;20222;-64
2022/05/31 09:06:51;;;;;;;5.50;5.20;;;15.70;99.90;;;;;;5051679;28;20174;-64
2022/05/31 09:09:29;;;;;;;5.60;5.10;;;15.70;99.90;;;;;;5052080;28;20186;-64
2022/05/31 09:12:43;;;;;;;6.03;5.43;;;15.80;99.90;;;;;;5052335;28;20256;-64
2022/05/31 09:15:13;;;;;;;5.50;5.00;;;15.90;99.90;;;;;;5010554;28;20184;-64
2022/05/31 09:18:03;;;;;;;5.20;4.80;;;15.90;99.90;;;;;;5045316;28;20634;-62
2022/05/31 09:20:47;;;;;;;5.73;5.33;;;16.00;99.90;;;;;;5050127;28;20336;-64
2022/05/31 09:23:19;;;;;;;6.70;5.83;;;16.00;99.90;;;;;;5052800;28;20653;-64
2022/05/31 09:25:46;;;;;;;5.60;5.10;;;16.10;99.90;;;;;;5052392;28;20175;-64
2022/05/31 09:28:53;;;;;;;5.43;4.93;;;16.30;99.90;;;;;;5052798;28;20240;-64
2022/05/31 09:31:43;;;;;;;5.80;5.13;;;16.70;99.90;;;;;;5043202;28;20206;-64
2022/05/31 09:34:33;;;;;;;6.43;5.77;;;17.10;99.90;;;;;;5052195;28;20182;-65
2022/05/31 09:37:24;;;;;;;5.40;5.00;;;17.60;99.90;;;;;;5052436;28;20179;-64
2022/05/31 09:39:53;;;;;;;11.33;5.60;;;18.30;99.90;;;;;;5052498;28;20229;-63
2022/05/31 09:42:24;;;;;;;5.53;4.00;;;19.20;99.90;;;;;;5052153;28;20199;-65
2022/05/31 09:45:15;;;;;;;6.03;3.90;;;20.10;99.90;;;;;;5051318;28;20236;-65
2022/05/31 09:47:41;;;;;;;6.18;3.53;;;21.20;99.90;;;;;;5051799;28;20193;-65
2022/05/31 09:50:08;;;;;;;4.38;3.58;;;22.50;99.90;;;;;;5052441;28;20198;-64
2022/05/31 09:52:36;;;;;;;4.10;3.70;;;23.00;99.90;;;;;;5051873;28;20649;-64
2022/05/31 09:58:16;;;;;;;3.72;3.42;;;23.80;99.90;;;;;;5052346;28;20209;-65
2022/05/31 10:01:02;;;;;;;4.47;3.90;;;24.40;99.90;;;;;;5052062;28;20213;-64
2022/05/31 10:03:33;;;;;;;4.90;4.00;;;24.00;99.90;;;;;;5063859;28;20183;-65
2022/05/31 10:06:13;;;;;;;3.97;3.63;;;23.90;99.90;;;;;;5031940;28;20209;-65
2022/05/31 10:08:38;;;;;;;4.38;3.97;;;23.40;99.90;;;;;;5031958;28;20171;-65
2022/05/31 10:11:10;;;;;;;4.00;3.60;;;23.30;99.90;;;;;;5031869;28;20276;-65
2022/05/31 10:13:41;;;;;;;6.35;3.85;;;23.10;99.90;;;;;;5031866;28;20207;-64
2022/05/31 10:16:19;;;;;;;4.47;4.07;;;23.30;99.90;;;;;;5031908;28;20286;-64
2022/05/31 10:18:59;;;;;;;4.55;4.25;;;23.30;99.90;;;;;;5031686;28;20592;-65
2022/05/31 10:21:30;;;;;;;5.00;4.15;;;23.00;99.90;;;;;;5032349;28;20214;-64
2022/05/31 10:24:03;;;;;;;4.47;4.13;;;22.70;99.90;;;;;;5046707;28;20181;-64
2022/05/31 10:26:32;;;;;;;4.50;4.10;;;22.50;99.90;;;;;;5031522;28;20172;-64
2022/05/31 10:29:23;;;;;;;4.50;4.20;;;22.40;99.90;;;;;;5038379;28;20179;-64
2022/05/31 10:31:50;;;;;;;4.45;4.10;;;22.30;99.90;;;;;;5051317;28;20277;-64
2022/05/31 10:34:35;;;;;;;4.45;4.05;;;21.70;99.90;;;;;;5048827;28;20564;-65
2022/05/31 10:37:05;;;;;;;4.00;3.70;;;21.50;99.90;;;;;;5051307;28;20194;-65
2022/05/31 10:39:36;;;;;;;4.68;4.07;;;21.30;99.90;;;;;;5082565;28;20236;-64
2022/05/31 10:42:03;;;;;;;4.30;4.00;;;21.30;99.90;;;;;;5051332;28;20202;-64
2022/05/31 10:44:51;;;;;;;6.15;3.78;;;21.40;99.90;;;;;;5050855;28;20179;-65
2022/05/31 10:47:20;;;;;;;3.92;3.72;;;21.50;99.90;;;;;;5050853;28;20186;-65
2022/05/31 10:49:46;;;;;;;3.92;3.60;;;21.90;99.90;;;;;;5050727;28;20181;-65
2022/05/31 10:52:40;;;;;;;3.75;3.40;;;22.50;99.90;;;;;;5051034;28;20733;-64
2022/05/31 10:55:21;;;;;;;5.65;3.70;;;23.70;99.90;;;;;;5050416;28;20221;-65
2022/05/31 10:58:09;;;;;;;4.03;3.63;;;24.90;99.90;;;;;;5051230;28;20198;-65
2022/05/31 11:00:56;;;;;;;4.47;3.63;;;25.40;99.90;;;;;;5037402;28;20238;-65
2022/05/31 11:03:45;;;;;;;4.43;3.55;;;25.60;99.90;;;;;;5050400;28;20178;-65
2022/05/31 11:06:38;;;;;;;4.57;3.40;;;25.20;99.90;;;;;;5049645;28;20175;-65
2022/05/31 11:13:17;;;;;;;3.85;3.53;;;26.20;99.90;;;;;;5034951;28;20225;-65
2022/05/31 11:16:02;;;;;;;3.97;3.10;;;26.80;99.90;;;;;;5028212;28;20198;-65
2022/05/31 11:19:04;;;;;;;4.60;3.60;;;27.00;99.90;;;;;;5028112;28;20175;-65
2022/05/31 11:21:45;;;;;;;4.65;3.40;;;27.60;99.90;;;;;;5008019;28;20626;-65
2022/05/31 11:24:36;;;;;;;3.55;3.30;;;27.80;99.90;;;;;;5027776;28;20248;-65
2022/05/31 11:27:26;;;;;;;3.28;3.03;;;27.20;99.90;;;;;;5050023;28;20270;-65
2022/05/31 11:30:03;;;;;;;3.67;3.38;;;27.10;99.90;;;;;;5035027;28;20174;-64
2022/05/31 11:32:35;;;;;;;4.00;3.70;;;27.30;99.90;;;;;;5050462;28;20181;-64
2022/05/31 11:35:06;;;;;;;3.50;3.30;;;27.30;99.90;;;;;;5050211;28;20209;-64
2022/05/31 11:37:40;;;;;;;3.72;3.42;;;27.30;99.90;;;;;;5050620;28;20182;-65
2022/05/31 11:40:14;;;;;;;3.95;3.65;;;27.40;99.90;;;;;;5048595;28;20206;-65
2022/05/31 11:42:40;;;;;;;4.05;3.70;;;27.60;99.90;;;;;;5050084;28;20197;-65
2022/05/31 11:45:31;;;;;;;4.07;3.78;;;26.60;99.90;;;;;;5049611;28;20179;-65
2022/05/31 11:48:04;;;;;;;4.10;3.70;;;26.10;99.90;;;;;;5049820;28;20179;-65
2022/05/31 11:50:37;;;;;;;5.35;4.10;;;25.60;99.90;;;;;;5049935;28;20555;-65
2022/05/31 11:53:38;;;;;;;4.63;4.18;;;25.60;99.90;;;;;;5050345;28;20236;-64
2022/05/31 11:56:36;;;;;;;3.80;3.50;;;25.10;99.90;;;;;;5042106;28;20797;-65
2022/05/31 11:59:14;;;;;;;5.72;3.53;;;24.90;99.90;;;;;;5038821;28;20191;-65
2022/05/31 12:01:52;;;;;;;4.30;3.78;;;24.70;99.90;;;;;;5050029;28;20597;-65
2022/05/31 12:04:36;;;;;;;5.75;3.72;;;24.90;99.90;;;;;;5049960;28;20178;-64
2022/05/31 12:07:45;;;;;;;3.83;3.53;;;25.70;99.90;;;;;;5049732;28;20658;-65
2022/05/31 12:10:29;;;;;;;3.75;3.55;;;26.60;99.90;;;;;;5001949;28;20671;-65
2022/05/31 12:12:58;;;;;;;3.97;3.67;;;27.00;99.90;;;;;;5030128;28;20167;-65
2022/05/31 12:15:29;;;;;;;4.78;3.45;;;26.80;99.90;;;;;;5050295;28;20178;-63
2022/05/31 12:18:37;;;;;;;4.20;3.90;;;26.60;99.90;;;;;;5050049;28;20236;-64
2022/05/31 12:21:12;;;;;;;3.80;3.50;;;26.40;99.90;;;;;;5049283;28;20233;-65
2022/05/31 12:23:58;;;;;;;4.05;3.75;;;25.90;99.90;;;;;;5053483;28;20320;-65
2022/05/31 12:26:36;;;;;;;5.00;3.88;;;25.50;99.90;;;;;;5052683;28;20175;-65
2022/05/31 12:29:05;;;;;;;4.55;3.60;;;24.80;99.90;;;;;;5052450;28;20187;-64
2022/05/31 12:31:36;;;;;;;4.28;3.97;;;24.50;99.90;;;;;;5053541;28;20542;-65
2022/05/31 12:34:19;;;;;;;3.80;3.50;;;24.50;99.90;;;;;;5052576;28;20183;-65
2022/05/31 12:37:14;;;;;;;4.35;3.90;;;24.40;99.90;;;;;;5053742;28;20495;-65
2022/05/31 12:39:42;;;;;;;4.13;3.72;;;24.20;99.90;;;;;;5040267;28;20222;-65
2022/05/31 12:42:14;;;;;;;3.92;3.63;;;24.10;99.90;;;;;;5053525;28;20685;-64
2022/05/31 12:44:49;;;;;;;4.03;3.63;;;23.80;99.20;;;;;;5052809;28;20493;-64
2022/05/31 12:47:28;;;;;;;4.15;3.88;;;23.20;94.70;;;;;;5053585;28;20167;-64
2022/05/31 12:50:06;;;;;;;3.50;3.30;;;22.90;96.70;;;;;;5052956;28;20174;-64
2022/05/31 12:55:26;;;;;;;4.90;3.53;;;22.50;99.10;;;;;;5052773;28;20181;-64
2022/05/31 12:58:42;;;;;;;3.67;3.47;;;22.20;99.90;;;;;;5045833;28;20653;-63
2022/05/31 13:01:10;;;;;;;5.38;4.03;;;21.90;99.90;;;;;;5045127;28;20301;-64
2022/05/31 13:03:42;;;;;;;3.63;3.43;;;21.60;99.90;;;;;;5053078;28;20171;-64
2022/05/31 13:06:10;;;;;;;4.20;3.90;;;21.40;99.90;;;;;;5052684;28;20171;-64
2022/05/31 13:08:59;;;;;;;3.93;3.67;;;21.20;99.90;;;;;;5053524;28;20170;-65
2022/05/31 13:20:31;;;;;;;4.33;3.93;;;21.00;99.90;;;;;;5053116;28;20269;-65
2022/05/31 13:23:07;;;;;;;3.87;3.57;;;21.00;99.90;;;;;;5052584;28;20269;-65
2022/05/31 13:26:01;;;;;;;3.90;3.60;;;21.00;99.90;;;;;;5052769;28;20236;-65
2022/05/31 13:28:26;;;;;;;3.75;3.47;;;21.20;99.90;;;;;;5052612;28;20228;-65
2022/05/31 13:30:57;;;;;;;3.75;3.40;;;22.00;99.90;;;;;;5052401;28;20195;-64
2022/05/31 13:33:23;;;;;;;3.53;3.28;;;22.80;99.90;;;;;;5051841;28;20548;-65
2022/05/31 13:36:12;;;;;;;3.35;3.05;;;23.30;99.50;;;;;;5052641;28;20175;-64
2022/05/31 13:38:42;;;;;;;3.35;3.15;;;23.80;98.20;;;;;;5052354;28;20191;-65
2022/05/31 13:41:12;;;;;;;3.13;2.83;;;23.90;97.80;;;;;;5052451;28;20579;-64
2022/05/31 13:43:47;;;;;;;3.22;3.03;;;24.10;99.90;;;;;;5050611;28;20187;-64
2022/05/31 13:46:38;;;;;;;3.30;3.03;;;24.10;98.60;;;;;;5052597;28;20626;-64